Terminal Aerodrome Forecast
Issued by NWS

Home | Current Version | Previous Version | Text Only | Print | Product List | Glossary On
Versions: 1 2 3 4 5 6 7 8 9 10 11 12 13
000
FTUS42 TJSJ 302300 RRA
TAFKPK
TAF
TKPK 302339Z 3100/3124 10009KT P6SM VCTS FEW018CB BKN040
      TEMPO 3100/3104 VRB14KT 5SM -SHRA BKN018
     FM310430 08007KT P6SM VCSH SCT018 BKN060
     FM311330 10012KT P6SM FEW022 SCT060
      AMD NOT SKED 3102/3111=

USA.gov is the U.S. government's official web portal to all federal, state and local government web resources and services.